Aérodrome :
LOGIN :

S'inscrire | Disclaimer

   EN    FR    IT 

 










Légende :    VFR   VFR Marginal   IFR   IFR Intensif   IFR Très Intensif
Visi : 
Plafond : 
>= 8 km
>= 3000ft
5 à 8 km
1000 à 3000 ft
1500m à 5 km
500 à 1000 ft
800 à 1500m
200 à 500 ft
< 800m
< 200 ft
Symboles :   Orages  Brouillard  Fortes neiges  Fortes précipitations  Vent > 20 kt
SIGMETs :   Divers  Orages  Givrage  Turbulence  Onde Orograph.  Cendres Volcan.







- Altitude de l'aérodrome : 856 ft
- Code IATA : VGO


LEVX - Vigo Peinador

METARs EXPIRÉS :
  • 241430Z 27011KT 240V320 CAVOK 23/14 Q1022 NOSIG
  • 241400Z 27011KT 230V320 9999 FEW037 23/14 Q1022 NOSIG
  • 241330Z 27011KT 230V320 9999 FEW037 23/15 Q1023 NOSIG
  • 241300Z 27011KT 230V320 9999 FEW037 23/15 Q1023 NOSIG
  • 241230Z VRB04KT 9999 FEW030 24/11 Q1023 NOSIG
  • 241200Z 36006KT 310V070 9999 FEW030 24/12 Q1023 NOSIG

TAF TAF LEVX
Valide du 23 à 18h jusqu'au 24 à 18h UTC


231700Z 2318/2418 28012KT 9999 SCT030 TX24/2412Z TN13/2406Z
BECMG 2318/2321 VRB05KT
PROB30
TEMPO 2402/2406 0800 BCFG BKN002
BECMG 2409/2411 28012KT
Pas de NOTAMs connus pour ce terrain.



MET'MAP, la Météo Aéronautique d'un coup d'oeil ! - Copyright ORBIFLY Décembre 2007 - Disclaimer

ORBIFLY MET'MAP TEAM :

Programmation & Développement : Alexandra Zaïnal
Conception & Développement : Baudouin d'Aumeries
Co-Programmation & Développement : Marc-Olivier Méhu
Soutien technique & logistique : Manuel Goepfert

Contact : metmap@orbifly.com




SOURCES & CREDITS :

   NOAA